Terminal Aerodrome Forecast
Issued by NWS

Home | Current Version | Previous Version | Text Only | Print | Product List | Glossary On
Versions: 1 2 3 4 5 6 7 8 9 10 11 12 13 14
081
FTUS45 KABQ 260522
TAFAEG
TAF
KAEG 260522Z 2606/2706 29006KT P6SM FEW120
     FM261700 23012KT P6SM FEW120
     FM262000 26020G30KT P6SM SCT080 BKN120=

USA.gov is the U.S. government's official web portal to all federal, state and local government web resources and services.